createdAt,value
2022-09-28T00:02:20.402Z,57.82
2022-09-28T00:05:09.339Z,59.30
2022-09-28T00:07:57.476Z,62.68
2022-09-28T00:10:46.527Z,64.79
2022-09-28T00:13:35.372Z,62.08
2022-09-28T00:16:27.601Z,59.02
2022-09-28T00:19:16.379Z,58.76
2022-09-28T00:22:04.733Z,60.84
2022-09-28T00:24:53.396Z,64.91
2022-09-28T00:27:41.617Z,64.96
2022-09-28T00:30:29.520Z,62.71
2022-09-28T00:33:18.235Z,61.34
2022-09-28T00:36:07.682Z,60.11
2022-09-28T00:38:58.229Z,60.02
2022-09-28T00:41:47.254Z,59.13
2022-09-28T00:44:56.212Z,58.89
2022-09-28T00:47:52.433Z,62.15
2022-09-28T00:50:41.412Z,65.96
2022-09-28T00:53:36.712Z,64.98
2022-09-28T00:56:30.385Z,63.62
2022-09-28T00:59:18.978Z,62.15
2022-09-28T01:02:07.774Z,60.85
2022-09-28T01:05:08.025Z,59.99
2022-09-28T01:07:59.022Z,59.92
2022-09-28T01:10:49.010Z,58.22
2022-09-28T01:13:40.627Z,60.14
2022-09-28T01:17:25.880Z,65.23
2022-09-28T01:20:44.895Z,64.69
2022-09-28T01:24:14.077Z,62.47
2022-09-28T01:27:32.023Z,61.31
2022-09-28T01:30:22.587Z,60.60
2022-09-28T01:33:21.028Z,59.82
2022-09-28T01:36:50.897Z,59.77
2022-09-28T01:39:45.408Z,58.14
2022-09-28T01:42:37.675Z,59.56
2022-09-28T01:45:35.037Z,64.33
2022-09-28T01:48:36.256Z,65.15
2022-09-28T01:52:09.327Z,63.84
2022-09-28T01:55:19.362Z,62.18
2022-09-28T01:58:36.474Z,61.17
2022-09-28T02:01:36.447Z,60.86
2022-09-28T02:04:46.836Z,60.26
2022-09-28T02:08:02.233Z,60.21
2022-09-28T02:10:58.501Z,59.80
2022-09-28T02:13:58.552Z,58.26
2022-09-28T02:16:54.414Z,58.44
2022-09-28T02:19:47.629Z,60.40
2022-09-28T02:22:48.039Z,68.01
2022-09-28T02:25:58.563Z,67.32
2022-09-28T02:28:47.193Z,65.31
2022-09-28T02:31:35.981Z,63.72
2022-09-28T02:34:24.840Z,62.71
2022-09-28T02:37:13.477Z,61.73
2022-09-28T02:40:02.277Z,61.22
2022-09-28T02:43:24.693Z,60.97
2022-09-28T02:46:28.708Z,60.67
2022-09-28T02:49:42.085Z,60.07
2022-09-28T02:53:33.457Z,58.01
2022-09-28T02:56:30.179Z,61.99
2022-09-28T02:59:53.722Z,67.16
2022-09-28T03:03:04.126Z,66.55
2022-09-28T03:06:00.493Z,64.49
2022-09-28T03:09:18.858Z,62.90
2022-09-28T03:12:14.821Z,61.77
2022-09-28T03:15:10.804Z,60.99
2022-09-28T03:17:59.660Z,60.56
2022-09-28T03:20:47.684Z,59.86
2022-09-28T03:23:35.803Z,58.18
2022-09-28T03:26:23.396Z,60.57
2022-09-28T03:29:11.381Z,64.40
2022-09-28T03:31:59.638Z,65.56
2022-09-28T03:34:47.514Z,63.47
2022-09-28T03:37:36.195Z,62.42
2022-09-28T03:40:24.683Z,61.90
2022-09-28T03:43:13.469Z,62.13
2022-09-28T03:46:02.842Z,61.45
2022-09-28T03:48:52.589Z,61.60
2022-09-28T03:51:40.238Z,60.68
2022-09-28T03:54:29.826Z,60.56
2022-09-28T03:57:17.931Z,60.81
2022-09-28T04:00:06.809Z,60.85
2022-09-28T04:03:01.401Z,59.10
2022-09-28T04:05:53.848Z,59.84
2022-09-28T04:08:43.678Z,63.18
2022-09-28T04:11:43.045Z,65.75
2022-09-28T04:14:40.417Z,63.78
2022-09-28T04:17:28.397Z,63.84
2022-09-28T04:20:17.254Z,62.71
2022-09-28T04:23:20.583Z,63.11
2022-09-28T04:26:21.202Z,62.73
2022-09-28T04:29:19.407Z,61.42
2022-09-28T04:32:15.065Z,61.46
2022-09-28T04:35:02.985Z,61.40
2022-09-28T04:37:50.969Z,60.94
2022-09-28T04:40:38.977Z,61.22
2022-09-28T04:43:27.127Z,61.22
2022-09-28T04:46:15.515Z,60.73
2022-09-28T04:49:11.477Z,60.59
2022-09-28T04:52:12.542Z,60.99
2022-09-28T04:55:06.178Z,61.10
2022-09-28T04:57:54.780Z,61.39
2022-09-28T05:00:42.820Z,61.48
2022-09-28T05:03:46.428Z,61.48
2022-09-28T05:07:06.971Z,62.03
2022-09-28T05:09:56.126Z,61.92
2022-09-28T05:12:44.160Z,61.40
2022-09-28T05:15:36.184Z,61.07
2022-09-28T05:18:24.930Z,60.51
2022-09-28T05:21:25.284Z,60.84
2022-09-28T05:24:13.334Z,60.98
2022-09-28T05:27:01.289Z,61.01
2022-09-28T05:29:50.640Z,60.72
2022-09-28T05:32:59.437Z,59.51
2022-09-28T05:36:11.266Z,57.87
2022-09-28T05:38:59.566Z,59.39
2022-09-28T05:41:47.317Z,64.74
2022-09-28T05:44:35.356Z,67.04
2022-09-28T05:47:23.204Z,65.25
2022-09-28T05:50:12.153Z,64.50
2022-09-28T05:53:06.152Z,63.80
2022-09-28T05:55:59.522Z,63.23
2022-09-28T05:58:47.549Z,62.15
2022-09-28T06:01:38.428Z,62.04
2022-09-28T06:04:29.407Z,61.63
2022-09-28T06:07:18.574Z,61.45
2022-09-28T06:10:06.959Z,60.92
2022-09-28T06:13:02.533Z,60.51
2022-09-28T06:15:50.579Z,60.32
2022-09-28T06:18:38.543Z,59.81
2022-09-28T06:21:42.782Z,59.22
2022-09-28T06:24:30.731Z,57.06
2022-09-28T06:27:18.720Z,58.85
2022-09-28T06:30:07.452Z,60.84
2022-09-28T06:32:57.823Z,65.56
2022-09-28T06:35:47.391Z,67.35
2022-09-28T06:38:35.395Z,65.42
2022-09-28T06:41:24.478Z,63.57
2022-09-28T06:44:12.757Z,62.33
2022-09-28T06:47:22.240Z,61.39
2022-09-28T06:50:41.632Z,60.95
2022-09-28T06:53:48.558Z,60.30
2022-09-28T06:56:53.610Z,59.95
2022-09-28T06:59:41.905Z,59.59
2022-09-28T07:02:31.485Z,57.45
2022-09-28T07:05:29.776Z,57.80
2022-09-28T07:08:38.914Z,59.44
2022-09-28T07:11:48.126Z,64.28
2022-09-28T07:14:48.054Z,65.99
2022-09-28T07:17:50.116Z,63.52
2022-09-28T07:20:53.742Z,62.56
2022-09-28T07:23:52.966Z,61.44
2022-09-28T07:26:45.591Z,60.54
2022-09-28T07:29:54.109Z,57.41
2022-09-28T07:32:56.138Z,58.72
2022-09-28T07:36:07.459Z,60.26
2022-09-28T07:38:55.604Z,64.98
2022-09-28T07:41:44.496Z,66.54
2022-09-28T07:44:33.850Z,65.32
2022-09-28T07:47:30.843Z,63.66
2022-09-28T07:50:39.114Z,62.07
2022-09-28T07:53:48.343Z,60.74
2022-09-28T07:56:55.030Z,60.18
2022-09-28T08:00:07.283Z,57.38
2022-09-28T08:03:05.220Z,57.92
2022-09-28T08:06:02.472Z,59.96
2022-09-28T08:08:50.514Z,64.56
2022-09-28T08:11:44.079Z,66.10
2022-09-28T08:15:00.374Z,64.58
2022-09-28T08:18:14.405Z,63.21
2022-09-28T08:21:24.187Z,61.60
2022-09-28T08:24:15.564Z,60.12
2022-09-28T08:27:04.108Z,57.50
2022-09-28T08:29:54.190Z,57.73
2022-09-28T08:33:18.119Z,59.69
2022-09-28T08:36:24.701Z,65.16
2022-09-28T08:39:31.299Z,66.29
2022-09-28T08:43:15.085Z,64.86
2022-09-28T08:46:45.328Z,62.87
2022-09-28T08:49:52.127Z,60.97
2022-09-28T08:53:20.934Z,60.43
2022-09-28T08:56:50.549Z,58.90
2022-09-28T08:59:56.043Z,57.41
2022-09-28T09:02:49.719Z,58.95
2022-09-28T09:06:18.635Z,63.01
2022-09-28T09:09:42.002Z,64.24
2022-09-28T09:13:19.254Z,61.85
2022-09-28T09:16:35.695Z,60.26
2022-09-28T09:20:08.647Z,56.80
2022-09-28T09:23:31.629Z,57.90
2022-09-28T09:26:29.259Z,62.32
2022-09-28T09:29:32.343Z,63.13
2022-09-28T09:32:33.341Z,61.58
2022-09-28T09:35:52.504Z,60.22
2022-09-28T09:39:08.688Z,57.28
2022-09-28T09:42:43.484Z,58.51
2022-09-28T09:46:30.135Z,60.31
2022-09-28T09:49:55.818Z,65.81
2022-09-28T09:53:00.170Z,65.65
2022-09-28T09:55:57.508Z,63.66
2022-09-28T09:59:06.868Z,61.65
2022-09-28T10:02:29.028Z,60.62
2022-09-28T10:05:46.949Z,59.61
2022-09-28T10:08:40.972Z,56.21
2022-09-28T10:11:36.773Z,58.31
2022-09-28T10:14:26.966Z,58.63
2022-09-28T10:17:27.884Z,63.93
2022-09-28T10:20:40.082Z,64.57
2022-09-28T10:23:45.080Z,62.11
2022-09-28T10:26:42.051Z,59.45
2022-09-28T10:29:46.038Z,55.79
2022-09-28T10:32:55.911Z,57.29
2022-09-28T10:35:47.971Z,58.92
2022-09-28T10:38:36.162Z,63.87
2022-09-28T10:41:50.133Z,64.05
2022-09-28T10:44:55.689Z,61.84
2022-09-28T10:47:55.939Z,58.67
2022-09-28T10:50:57.167Z,57.17
2022-09-28T10:54:05.704Z,59.59
2022-09-28T10:57:29.210Z,63.28
2022-09-28T11:00:43.311Z,62.57
2022-09-28T11:04:04.260Z,60.79
2022-09-28T11:06:52.822Z,57.73
2022-09-28T11:09:48.496Z,59.86
2022-09-28T11:12:44.151Z,62.19
2022-09-28T11:15:34.082Z,64.13
2022-09-28T11:18:31.908Z,61.64
2022-09-28T11:21:32.297Z,60.00
2022-09-28T11:24:27.183Z,57.60
2022-09-28T11:27:26.854Z,59.38
2022-09-28T11:30:42.476Z,59.90
2022-09-28T11:34:03.381Z,64.04
2022-09-28T11:37:23.556Z,62.33
2022-09-28T11:40:33.903Z,58.50
2022-09-28T11:43:39.834Z,58.46
2022-09-28T11:46:49.409Z,61.11
2022-09-28T11:49:52.572Z,63.83
2022-09-28T11:52:54.540Z,62.68
2022-09-28T11:55:54.495Z,59.50
2022-09-28T11:58:51.215Z,58.03
2022-09-28T12:02:19.643Z,60.79
2022-09-28T12:05:25.604Z,62.04
2022-09-28T12:08:28.987Z,63.75
2022-09-28T12:11:36.232Z,60.90
2022-09-28T12:14:40.081Z,58.28
2022-09-28T12:17:56.313Z,59.90
2022-09-28T12:20:51.860Z,61.69
2022-09-28T12:23:43.620Z,62.65
2022-09-28T12:26:57.584Z,61.23
2022-09-28T12:30:05.721Z,58.15
2022-09-28T12:33:12.493Z,59.51
2022-09-28T12:37:11.123Z,61.72
2022-09-28T12:40:22.921Z,62.53
2022-09-28T12:43:11.369Z,63.75
2022-09-28T12:46:30.039Z,59.56
2022-09-28T12:54:13.936Z,60.37
2022-09-28T12:57:43.996Z,60.67
2022-09-28T13:00:59.164Z,62.36
2022-09-28T13:04:21.995Z,62.01
2022-09-28T13:07:34.754Z,57.53
2022-09-28T13:10:32.895Z,57.13
2022-09-28T13:13:48.571Z,59.61
2022-09-28T13:16:46.127Z,58.87
2022-09-28T13:19:59.946Z,58.81
2022-09-28T13:22:53.100Z,59.67
2022-09-28T13:26:23.329Z,59.91
2022-09-28T13:29:18.852Z,60.02
2022-09-28T13:32:09.724Z,59.25
2022-09-28T13:34:59.036Z,58.66
2022-09-28T13:38:21.072Z,59.41
2022-09-28T13:41:12.425Z,58.87
2022-09-28T13:44:16.798Z,58.62
2022-09-28T13:47:16.876Z,59.11
2022-09-28T13:50:34.815Z,59.38
2022-09-28T13:53:47.688Z,59.78
2022-09-28T13:57:13.547Z,60.36
2022-09-28T14:00:13.791Z,60.06
2022-09-28T14:03:43.993Z,60.18
2022-09-28T14:06:33.522Z,60.75
2022-09-28T14:09:58.361Z,60.11
2022-09-28T14:12:54.527Z,60.41
2022-09-28T14:15:45.493Z,59.68
2022-09-28T14:18:37.415Z,59.76
2022-09-28T14:21:46.671Z,60.25
2022-09-28T14:25:17.667Z,60.36
2022-09-28T14:28:49.323Z,61.21
2022-09-28T14:31:43.867Z,60.91
2022-09-28T14:35:18.610Z,61.10
2022-09-28T14:38:54.169Z,61.49
2022-09-28T14:41:44.639Z,61.37
2022-09-28T14:45:06.603Z,62.10
2022-09-28T14:48:21.638Z,64.44
2022-09-28T14:51:25.081Z,66.56
2022-09-28T14:54:30.797Z,62.86
2022-09-28T14:57:24.444Z,57.75
2022-09-28T15:00:22.388Z,55.46
2022-09-28T15:03:13.067Z,56.42
2022-09-28T15:06:08.452Z,57.13
2022-09-28T15:08:56.555Z,57.82
2022-09-28T15:11:44.927Z,58.98
2022-09-28T15:14:40.449Z,59.54
2022-09-28T15:17:43.321Z,60.17
2022-09-28T15:20:40.435Z,60.58
2022-09-28T15:23:37.024Z,65.20
2022-09-28T15:26:31.192Z,67.26
2022-09-28T15:29:49.331Z,63.37
2022-09-28T15:32:37.250Z,59.98
2022-09-28T15:35:27.891Z,56.79
2022-09-28T15:38:19.604Z,54.98
2022-09-28T15:41:10.375Z,55.70
2022-09-28T15:44:38.308Z,58.08
2022-09-28T15:47:32.033Z,58.89
2022-09-28T15:50:30.131Z,60.84
2022-09-28T15:53:19.060Z,61.81
2022-09-28T15:56:10.393Z,63.73
2022-09-28T16:00:07.405Z,65.31
2022-09-28T16:03:13.918Z,62.75
2022-09-28T16:06:10.784Z,59.94
2022-09-28T16:08:58.908Z,55.19
2022-09-28T16:11:47.255Z,55.45
2022-09-28T16:14:35.232Z,57.37
2022-09-28T16:17:35.222Z,57.63
2022-09-28T16:20:39.870Z,60.17
2022-09-28T16:23:34.454Z,63.09
2022-09-28T16:26:36.268Z,65.42
2022-09-28T16:30:08.871Z,62.49
2022-09-28T16:33:05.317Z,56.98
2022-09-28T16:35:53.592Z,56.13
2022-09-28T16:38:45.529Z,57.66
2022-09-28T16:41:33.555Z,60.15
2022-09-28T16:44:31.953Z,60.96
2022-09-28T16:47:20.276Z,61.53
2022-09-28T16:50:12.656Z,65.25
2022-09-28T16:53:39.409Z,66.04
2022-09-28T16:56:34.999Z,63.39
2022-09-28T16:59:26.255Z,60.83
2022-09-28T17:02:46.278Z,57.61
2022-09-28T17:05:32.562Z,57.16
2022-09-28T17:08:25.240Z,59.12
2022-09-28T17:11:23.405Z,60.80
2022-09-28T17:14:12.665Z,65.84
2022-09-28T17:17:09.030Z,66.21
2022-09-28T17:19:58.858Z,63.40
2022-09-28T17:22:47.453Z,61.51
2022-09-28T17:25:36.788Z,59.90
2022-09-28T17:28:34.261Z,57.21
2022-09-28T17:31:22.403Z,57.75
2022-09-28T17:34:12.463Z,59.65
2022-09-28T17:37:00.414Z,61.79
2022-09-28T17:39:49.435Z,66.68
2022-09-28T17:42:37.295Z,67.48
2022-09-28T17:45:28.803Z,64.91
2022-09-28T17:48:24.409Z,62.60
2022-09-28T17:51:15.369Z,61.22
2022-09-28T17:54:08.231Z,60.26
2022-09-28T17:56:59.355Z,57.80
2022-09-28T18:00:06.007Z,58.57
2022-09-28T18:02:58.474Z,60.68
2022-09-28T18:05:58.662Z,65.47
2022-09-28T18:08:47.814Z,66.13
2022-09-28T18:11:44.276Z,63.56
2022-09-28T18:14:32.188Z,61.88
2022-09-28T18:17:20.128Z,60.54
2022-09-28T18:20:12.421Z,60.27
2022-09-28T18:23:02.659Z,58.19
2022-09-28T18:25:50.722Z,58.80
2022-09-28T18:28:39.114Z,60.74
2022-09-28T18:31:28.061Z,64.48
2022-09-28T18:34:16.482Z,67.06
2022-09-28T18:37:06.651Z,65.41
2022-09-28T18:39:54.467Z,63.76
2022-09-28T18:42:43.057Z,62.22
2022-09-28T18:45:33.283Z,61.18
2022-09-28T18:48:25.118Z,60.48
2022-09-28T18:51:15.116Z,60.07
2022-09-28T18:54:07.807Z,57.80
2022-09-28T18:56:58.961Z,57.35
2022-09-28T18:59:48.500Z,59.11
2022-09-28T19:02:37.344Z,61.00
2022-09-28T19:05:28.993Z,67.31
2022-09-28T19:08:16.888Z,68.25
2022-09-28T19:11:14.230Z,65.63
2022-09-28T19:14:03.854Z,63.56
2022-09-28T19:16:54.316Z,61.94
2022-09-28T19:19:45.233Z,60.84
2022-09-28T19:22:33.473Z,60.16
2022-09-28T19:25:21.291Z,57.74
2022-09-28T19:28:09.556Z,58.41
2022-09-28T19:33:53.990Z,65.58
2022-09-28T19:36:42.790Z,66.73
2022-09-28T19:39:31.267Z,64.58
2022-09-28T19:42:19.526Z,62.50
2022-09-28T19:45:08.944Z,61.12
2022-09-28T19:47:59.545Z,60.11
2022-09-28T19:51:08.356Z,57.74
2022-09-28T19:53:57.482Z,58.36
2022-09-28T19:56:50.460Z,60.08
2022-09-28T20:02:42.931Z,66.42
2022-09-28T20:05:32.637Z,63.85
2022-09-28T20:17:57.942Z,57.89
2022-09-28T20:21:05.900Z,58.05
2022-09-28T20:23:57.932Z,60.30
2022-09-28T20:26:49.762Z,65.28
2022-09-28T20:29:39.861Z,66.09
2022-09-28T20:32:32.850Z,63.69
2022-09-28T20:35:32.992Z,61.64
2022-09-28T20:38:21.533Z,60.41
2022-09-28T20:41:12.336Z,57.70
2022-09-28T20:44:05.009Z,58.24
2022-09-28T20:46:53.669Z,60.59
2022-09-28T20:49:41.893Z,65.60
2022-09-28T20:52:32.402Z,66.66
2022-09-28T20:55:20.807Z,64.77
2022-09-28T20:58:09.145Z,62.84
2022-09-28T21:01:22.835Z,61.25
2022-09-28T21:04:13.510Z,60.60
2022-09-28T21:07:02.209Z,60.06
2022-09-28T21:09:50.681Z,57.57
2022-09-28T21:12:39.223Z,58.08
2022-09-28T21:15:27.760Z,60.42
2022-09-28T21:18:19.292Z,65.31
2022-09-28T21:21:13.129Z,66.78
2022-09-28T21:24:02.560Z,64.62
2022-09-28T21:26:51.097Z,63.25
2022-09-28T21:29:42.516Z,62.10
2022-09-28T21:32:31.166Z,61.19
2022-09-28T21:35:19.968Z,60.81
2022-09-28T21:38:08.401Z,60.34
2022-09-28T21:41:00.516Z,59.77
2022-09-28T21:43:48.732Z,57.25
2022-09-28T21:46:38.718Z,57.39
2022-09-28T21:49:26.559Z,59.59
2022-09-28T21:52:14.749Z,60.80
2022-09-28T21:55:03.704Z,66.76
2022-09-28T21:57:51.896Z,68.13
2022-09-28T22:00:40.064Z,66.25
2022-09-28T22:03:30.789Z,64.48
2022-09-28T22:06:21.763Z,62.90
2022-09-28T22:09:10.324Z,62.10
2022-09-28T22:11:59.106Z,61.47
2022-09-28T22:14:47.304Z,60.98
2022-09-28T22:17:38.582Z,58.87
2022-09-28T22:20:29.079Z,58.10
2022-09-28T22:23:17.153Z,59.79
2022-09-28T22:26:09.885Z,64.15
2022-09-28T22:29:05.357Z,67.65
2022-09-28T22:32:00.263Z,66.48
2022-09-28T22:34:48.320Z,64.35
2022-09-28T22:37:36.243Z,63.68
2022-09-28T22:40:27.334Z,62.32
2022-09-28T22:43:16.096Z,62.18
2022-09-28T22:46:16.879Z,61.70
2022-09-28T22:49:04.702Z,60.95
2022-09-28T22:51:52.791Z,60.71
2022-09-28T22:54:40.918Z,60.22
2022-09-28T22:57:29.595Z,59.64
2022-09-28T23:00:17.751Z,57.58
2022-09-28T23:03:06.044Z,57.90
2022-09-28T23:05:56.707Z,59.81
2022-09-28T23:08:46.195Z,64.56
2022-09-28T23:11:34.482Z,66.23
2022-09-28T23:14:22.952Z,64.67
2022-09-28T23:17:10.654Z,64.26
2022-09-28T23:19:58.649Z,63.64
2022-09-28T23:22:50.837Z,62.96
2022-09-28T23:25:38.444Z,62.49
2022-09-28T23:28:27.471Z,60.82
2022-09-28T23:31:23.216Z,59.74
2022-09-28T23:34:11.355Z,62.54
2022-09-28T23:36:59.617Z,65.29
2022-09-28T23:39:47.928Z,64.72
2022-09-28T23:42:36.355Z,64.19
2022-09-28T23:45:25.367Z,63.42
2022-09-28T23:48:15.237Z,62.37
2022-09-28T23:51:04.306Z,62.43
2022-09-28T23:53:52.657Z,62.29
2022-09-28T23:56:41.122Z,61.73
2022-09-28T23:59:29.816Z,62.04
